Latest Coastal Weather Observations for Moruya Airport

IDN60701

Issued at 12:51 pm EST Friday 28 July 2017 (issued every 10 minutes, with the page automatically refreshed every 10 minutes)

About coastal observations | Map of coastal stations | Coastal observations for NSW | Marine services | Other Formats
Station Details ID: 069148 Name: MORUYA AIRPORT AWS Lat: -35.90 Lon: 150.14 Height: 4.0 m
Data from the previous 72 hours. | See also: Recent months at Moruya Airport
Date/Time
EST
Temp
°C
Wind Pressure Rain since
9am
mm
Weather Cloud Vis
km
Sea
Height
m
Swell
Dir  Spd
kts
Gust
kts
hPa Trend Height
m
Period
s
Dir
28/12:30pm 17.0 SW 13 18 1014.6 - 0.0 - - 10 - - - -
28/12:00pm 16.9 SW 15 23 1014.8 - 0.0 - - 10 - - - -
28/11:30am 16.7 WSW 12 19 1014.7 - 0.0 - Partly cloudy 10 - - - -
28/11:00am 16.5 SW 13 19 1014.9 - 0.0 - - 10 - - - -
28/10:30am 16.1 SW 12 16 1014.7 - 0.0 - Partly cloudy 10 - - - -
28/10:00am 16.3 WSW 7 11 1014.3 - 0.0 - Partly cloudy 10 - - - -
28/09:30am 15.2 WNW 8 11 1014.0 - 0.0 - - 10 - - - -
28/09:00am 14.4 NW 7 14 1013.9 - 0.0 - - 10 - - - -
28/08:30am 13.7 NW 8 14 1013.5 - 0.0 - - 10 - - - -
28/08:00am 12.5 NW 7 11 1013.5 - 0.0 - - 10 - - - -
28/07:30am 12.2 NNW 6 9 1013.8 - 0.0 - - 10 - - - -
28/07:00am 12.9 NW 7 11 1013.7 - 0.0 - - 10 - - - -
28/06:30am 12.8 N 9 13 1013.1 - 0.0 - Partly cloudy 10 - - - -
28/06:00am 12.4 NW 5 11 1014.0 - 0.0 - Cloudy 10 - - - -
28/05:30am 12.4 NNW 5 9 1013.4 - 0.0 - - 10 - - - -
28/05:00am 12.2 N 8 11 1013.7 - 0.0 - Partly cloudy 10 - - - -
28/04:30am 11.2 NNW 6 13 1014.5 - 0.0 - Partly cloudy 10 - - - -
28/04:00am 10.9 NNW 6 9 1014.0 - 0.0 - - 10 - - - -
28/03:30am 9.5 NNW 3 5 1014.4 - 0.0 - - 10 - - - -
28/03:00am 8.6 N 5 8 1014.5 - 0.0 - Mostly cloudy 10 - - - -
28/02:30am 8.4 NW 3 5 1015.1 - 0.0 - Partly cloudy 10 - - - -
28/02:00am 9.3 NNW 6 9 1015.3 - 0.0 - - 10 - - - -
28/01:30am 9.7 NNW 5 8 1015.0 - 0.0 - - 10 - - - -
28/01:00am 11.5 N 10 13 1015.6 - 0.0 - - 10 - - - -
28/12:30am 10.9 N 9 12 1016.3 - 0.0 - - 10 - - - -
28/12:00am 11.3 N 9 13 1017.0 - 0.0 - Mostly cloudy 10 - - - -
 
Date/Time
EST
Temp
°C
Wind Pressure Rain since
9am
mm
Weather Cloud Vis
km
Sea
Height
m
Swell
Dir  Spd
kts
Gust
kts
hPa Trend Height
m
Period
s
Dir
27/11:30pm 9.9 NNW 6 9 1017.4 - 0.0 - - 10 - - - -
27/11:00pm 10.5 N 7 11 1017.8 - 0.0 - - 10 - - - -
27/10:30pm 10.2 N 8 11 1018.1 - 0.0 - - 10 - - - -
27/10:00pm 9.5 NNW 8 10 1018.5 - 0.0 - - 10 - - - -
27/09:30pm 9.2 N 7 9 1018.3 - 0.0 - - 10 - - - -
27/09:00pm 9.0 NW 5 7 1018.8 - 0.0 - - 10 - - - -
27/08:30pm 9.3 NNW 6 8 1019.0 - 0.0 - - 10 - - - -
27/08:00pm 10.4 N 6 10 1019.7 - 0.0 - - 10 - - - -
27/07:30pm 11.0 N 8 11 1020.2 - 0.0 - - 10 - - - -
27/07:00pm 10.9 NNW 8 11 1020.3 - 0.0 - - 10 - - - -
27/06:30pm 11.2 N 7 10 1020.0 - 0.0 - - 10 - - - -
27/06:00pm 11.7 N 8 11 1020.3 - 0.0 - - 10 - - - -
27/05:30pm 12.2 N 9 13 1020.3 - 0.0 - - 10 - - - -
27/05:00pm 12.5 N 8 11 1020.4 - 0.0 - - 10 - - - -
27/04:30pm 13.4 N 11 16 1020.5 - 0.0 - - 10 - - - -
27/04:00pm 14.0 NNE 12 17 1020.5 - 0.0 - - 10 - - - -
27/03:30pm 14.4 NNE 13 19 1020.8 - 0.0 - - 10 - - - -
27/03:00pm 14.6 NE 11 15 1021.1 - 0.0 - - 10 - - - -
27/02:30pm 14.3 NE 11 14 1021.3 - 0.0 - - 10 - - - -
27/02:00pm 14.5 NE 10 13 1021.8 - 0.0 - - 10 - - - -
27/01:30pm 14.6 NE 11 13 1022.1 - 0.0 - - 10 - - - -
27/01:00pm 14.9 ENE 10 13 1022.3 - 0.0 - - 10 - - - -
27/12:30pm 14.5 ENE 9 11 1022.8 - 0.0 - - 10 - - - -
27/12:00pm 14.3 ENE 8 10 1023.5 - 0.0 - - 10 - - - -
27/11:30am 14.3 ENE 7 9 1024.1 - 0.0 - - 10 - - - -
27/11:00am 14.3 NE 6 8 1024.8 - 0.0 - - 10 - - - -
27/10:30am 13.6 NE 4 5 1025.1 - 0.0 - - 10 - - - -
27/10:00am 12.1 W 4 6 1025.5 - 0.0 - - 10 - - - -
27/09:30am 10.6 SW 5 6 1025.4 - 0.0 - - 10 - - - -
27/09:00am 8.5 SW 4 6 1025.3 - 0.0 - - 10 - - - -
27/08:30am 6.0 CALM 0 3 1025.1 - 0.0 - - 10 - - - -
27/08:00am 4.1 WSW 1 4 1024.9 - 0.0 - - 10 - - - -
27/07:30am 1.6 W 5 6 1024.7 - 0.0 - - 10 - - - -
27/07:00am -0.4 W 4 5 1024.5 - 0.0 - - 10 - - - -
27/06:30am 0.3 W 4 6 1024.2 - 0.0 - - 10 - - - -
27/06:00am 1.2 WSW 3 4 1023.9 - 0.0 - - 10 - - - -
27/05:30am 1.4 NNW 1 4 1023.8 - 0.0 - - 10 - - - -
27/05:00am 1.7 NW 3 4 1023.9 - 0.0 - - 10 - - - -
27/04:30am 2.0 CALM 0 0 1023.7 - 0.0 - - 10 - - - -
27/04:00am 2.0 NW 2 5 1023.4 - 0.0 - - 10 - - - -
27/03:30am 2.7 CALM 0 0 1023.3 - 0.0 - - 10 - - - -
27/03:00am 3.1 WSW 1 3 1023.1 - 0.0 - - 10 - - - -
27/02:30am 3.6 WSW 1 4 1022.8 - 0.0 - - 10 - - - -
27/02:00am 3.2 WSW 5 6 1022.5 - 0.0 - - 10 - - - -
27/01:30am 4.1 WSW 4 5 1022.4 - 0.0 - - 10 - - - -
27/01:00am 3.5 CALM 0 0 1022.3 - 0.0 - - 10 - - - -
27/12:30am 4.7 WNW 2 3 1022.2 - 0.0 - - 10 - - - -
27/12:00am 4.2 SW 4 5 1022.2 - 0.0 - - 10 - - - -
 
Date/Time
EST
Temp
°C
Wind Pressure Rain since
9am
mm
Weather Cloud Vis
km
Sea
Height
m
Swell
Dir  Spd
kts
Gust
kts
hPa Trend Height
m
Period
s
Dir
26/11:30pm 5.8 W 3 5 1022.2 - 0.0 - - 10 - - - -
26/11:00pm 6.4 W 5 7 1021.7 - 0.0 - - 10 - - - -
26/10:30pm 7.0 SW 5 6 1021.2 - 0.0 - - 10 - - - -
26/10:00pm 8.7 SSW 3 4 1021.1 - 0.0 - - 10 - - - -
26/09:30pm 9.5 SSW 4 6 1020.7 - 0.0 - - 10 - - - -
26/09:00pm 9.6 S 3 5 1020.5 - 0.0 - - 10 - - - -
26/08:30pm 11.1 SW 4 7 1020.1 - 0.0 - - 10 - - - -
26/08:00pm 11.9 WSW 6 10 1019.3 - 0.0 - - 10 - - - -
26/07:30pm 12.6 SW 9 12 1019.1 - 0.0 - - 10 - - - -
26/07:00pm 13.1 SW 9 13 1018.8 - 0.0 - - 10 - - - -
26/06:30pm 13.8 SSW 14 19 1018.1 - 0.0 - - 10 - - - -
26/06:00pm 14.8 SSW 15 24 1017.4 - 0.0 - - 10 - - - -
26/05:58pm 14.9 SSW 14 24 1017.3 - 0.0 - - 10 - - - -
26/05:30pm 16.1 WSW 6 9 1016.2 - 0.0 - - 10 - - - -
26/05:00pm 17.4 WSW 8 17 1015.5 - 0.0 - - 10 - - - -
26/04:30pm 18.4 WSW 7 13 1014.8 - 0.0 - - 10 - - - -
26/04:00pm 19.3 WSW 10 18 1013.9 - 0.0 - - 10 - - - -
26/03:30pm 19.9 WSW 9 16 1013.2 - 0.0 - - 10 - - - -
26/03:00pm 20.3 W 9 17 1012.7 - 0.0 - - 10 - - - -
26/02:30pm 20.9 SW 10 16 1012.3 - 0.0 - - 10 - - - -
26/02:00pm 21.7 WSW 9 14 1012.0 - 0.0 - - 10 - - - -
26/01:30pm 21.0 W 9 16 1011.8 - 0.0 - - 10 - - - -
26/01:00pm 21.0 W 10 17 1011.7 - 0.0 - - 10 - - - -
26/12:30pm 21.0 WSW 9 15 1011.8 - 0.0 - - 10 - - - -
26/12:00pm 20.9 W 7 10 1012.2 - 0.0 - - 10 - - - -
26/11:30am 20.1 W 8 13 1012.4 - 0.0 - - 10 - - - -
26/11:00am 20.0 WNW 6 13 1012.7 - 0.0 - - 10 - - - -
26/10:30am 19.5 WNW 8 17 1012.8 - 0.0 - - 10 - - - -
26/10:00am 18.8 SW 5 12 1013.2 - 0.0 - - 10 - - - -
26/09:30am 17.8 NNE 3 6 1013.0 - 0.0 - - 10 - - - -
26/09:00am 16.0 SE 2 4 1013.2 - 0.0 - - 10 - - - -
26/08:30am 13.1 SSW 2 4 1012.9 - 0.0 - - 10 - - - -
26/08:00am 10.5 WSW 1 3 1012.6 - 0.0 - - 10 - - - -
26/07:30am 8.2 SSW 1 4 1012.2 - 0.0 - - 10 - - - -
26/07:00am 8.4 N 2 4 1011.8 - 0.0 - - 10 - - - -
26/06:30am 9.8 N 5 7 1011.4 - 0.0 - - 10 - - - -
26/06:00am 11.0 NNW 3 6 1011.2 - 0.0 - - 10 - - - -
26/05:30am 13.5 NNW 4 6 1011.1 - 0.0 - - 10 - - - -
26/05:00am 15.0 WNW 7 13 1010.8 - 0.0 - - 10 - - - -
26/04:30am 15.2 WNW 7 11 1010.9 - 0.0 - - 10 - - - -
26/04:00am 15.5 WNW 7 11 1011.2 - 0.0 - - 10 - - - -
26/03:30am 15.8 WNW 8 14 1011.4 - 0.0 - - 10 - - - -
26/03:00am 16.0 WNW 8 16 1011.5 - 0.0 - - 10 - - - -
26/02:30am 16.5 WNW 9 15 1011.9 - 0.0 - - 10 - - - -
26/02:00am 16.7 WNW 9 17 1011.9 - 0.0 - - 10 - - - -
26/01:30am 17.1 WNW 10 19 1012.0 - 0.0 - - 10 - - - -
26/01:00am 17.1 WNW 9 16 1012.3 - 0.0 - - 10 - - - -
26/12:30am 16.5 WNW 6 12 1012.3 - 0.0 - - 10 - - - -
26/12:00am 16.3 WNW 5 9 1012.7 - 0.0 - - 10 - - - -
 
Date/Time
EST
Temp
°C
Wind Pressure Rain since
9am
mm
Weather Cloud Vis
km
Sea
Height
m
Swell
Dir  Spd
kts
Gust
kts
hPa Trend Height
m
Period
s
Dir
25/11:30pm 16.3 NW 6 11 1013.2 - 0.0 - - 10 - - - -
25/11:00pm 15.1 NNW 5 8 1013.2 - 0.0 - - 10 - - - -
25/10:30pm 13.2 N 7 9 1013.6 - 0.0 - - 10 - - - -
25/10:00pm 11.6 NNW 6 8 1014.2 - 0.0 - - 10 - - - -
25/09:30pm 13.3 N 6 9 1013.8 - 0.0 - - 10 - - - -
25/09:00pm 11.0 NNE 8 10 1014.2 - 0.0 - - 10 - - - -
25/08:30pm 12.9 N 7 9 1014.9 - 0.0 - - 10 - - - -
25/08:00pm 10.8 N 6 10 1015.2 - 0.0 - - 10 - - - -
25/07:30pm 12.5 N 6 9 1015.2 - 0.0 - - 10 - - - -
25/07:00pm 15.2 N 9 13 1015.5 - 0.0 - - 10 - - - -
25/06:30pm 15.2 N 10 14 1015.5 - 0.0 - - 10 - - - -
25/06:00pm 11.6 NNW 5 7 1015.4 - 0.0 - - 10 - - - -
25/05:30pm 12.5 NNW 4 6 1015.3 - 0.0 - - 10 - - - -
25/05:00pm 14.6 NW 4 7 1015.1 - 0.0 - - 10 - - - -
25/04:30pm 16.5 N 7 10 1015.3 - 0.0 - - 10 - - - -
25/04:00pm 17.6 NNE 11 14 1015.4 - 0.0 - Partly cloudy 10 - - - -
25/03:30pm 18.8 NE 9 12 1015.7 - 0.0 - - 10 - - - -
25/03:00pm 19.7 ENE 8 10 1015.8 - 0.0 - - 10 - - - -
25/02:30pm 20.2 NE 8 10 1016.0 - 0.0 - - 10 - - - -
25/02:00pm 20.7 NNW 5 8 1016.4 - 0.0 - - 10 - - - -
25/01:30pm 20.5 NW 5 8 1016.7 - 0.0 - - 10 - - - -
25/01:00pm 19.8 NNW 6 10 1017.2 - 0.0 - - 10 - - - -

Other Formats:

Comma delimited format used in spreadsheet applications
http://www.bom.gov.au/fwo/IDN60701/IDN60701.95937.axf

JavaScript Object Notation format (JSON) in row-major order
http://www.bom.gov.au/fwo/IDN60701/IDN60701.95937.json